sensor_id;sensor_type;location;lat;lon;timestamp;pressure;altitude;pressure_sealevel;temperature
14666;BMP280;7420;53.574;10.040;2023-11-18T00:02:22;54208.84;;;-136.87
14666;BMP280;7420;53.574;10.040;2023-11-18T00:04:49;54208.84;;;-136.87
14666;BMP280;7420;53.574;10.040;2023-11-18T00:07:14;54208.84;;;-136.87
14666;BMP280;7420;53.574;10.040;2023-11-18T00:09:40;54212.94;;;-136.87
14666;BMP280;7420;53.574;10.040;2023-11-18T00:12:05;54212.94;;;-136.87
14666;BMP280;7420;53.574;10.040;2023-11-18T00:14:31;54212.94;;;-136.87
14666;BMP280;7420;53.574;10.040;2023-11-18T00:16:56;54212.94;;;-136.87
14666;BMP280;7420;53.574;10.040;2023-11-18T00:19:24;54208.84;;;-136.87
14666;BMP280;7420;53.574;10.040;2023-11-18T00:21:49;54210.91;;;-136.87
14666;BMP280;7420;53.574;10.040;2023-11-18T00:24:14;54210.91;;;-136.87
14666;BMP280;7420;53.574;10.040;2023-11-18T00:26:41;54212.94;;;-136.87
14666;BMP280;7420;53.574;10.040;2023-11-18T00:29:06;54212.94;;;-136.87
14666;BMP280;7420;53.574;10.040;2023-11-18T00:31:32;54210.91;;;-136.87
14666;BMP280;7420;53.574;10.040;2023-11-18T00:33:58;54212.94;;;-136.87
14666;BMP280;7420;53.574;10.040;2023-11-18T00:36:23;54217.03;;;-136.87
14666;BMP280;7420;53.574;10.040;2023-11-18T00:38:49;54212.94;;;-136.87
14666;BMP280;7420;53.574;10.040;2023-11-18T00:41:14;54214.97;;;-136.87
14666;BMP280;7420;53.574;10.040;2023-11-18T00:43:39;54212.94;;;-136.87
14666;BMP280;7420;53.574;10.040;2023-11-18T00:46:05;54212.94;;;-136.87
14666;BMP280;7420;53.574;10.040;2023-11-18T00:48:30;54214.97;;;-136.87
14666;BMP280;7420;53.574;10.040;2023-11-18T00:50:56;54219.06;;;-136.87
14666;BMP280;7420;53.574;10.040;2023-11-18T00:53:21;54219.06;;;-136.87
14666;BMP280;7420;53.574;10.040;2023-11-18T00:55:47;54217.03;;;-136.87
14666;BMP280;7420;53.574;10.040;2023-11-18T00:58:12;54217.03;;;-136.87
14666;BMP280;7420;53.574;10.040;2023-11-18T01:00:38;54217.03;;;-136.87
14666;BMP280;7420;53.574;10.040;2023-11-18T01:03:04;54217.03;;;-136.87
14666;BMP280;7420;53.574;10.040;2023-11-18T01:05:29;54217.03;;;-136.87
14666;BMP280;7420;53.574;10.040;2023-11-18T01:07:59;54217.03;;;-136.87
14666;BMP280;7420;53.574;10.040;2023-11-18T01:10:25;54219.06;;;-136.87
14666;BMP280;7420;53.574;10.040;2023-11-18T01:12:50;54219.06;;;-136.87
14666;BMP280;7420;53.574;10.040;2023-11-18T01:15:15;54219.06;;;-136.87
14666;BMP280;7420;53.574;10.040;2023-11-18T01:17:41;54217.03;;;-136.87
14666;BMP280;7420;53.574;10.040;2023-11-18T01:20:07;54217.03;;;-136.87
14666;BMP280;7420;53.574;10.040;2023-11-18T01:22:37;54217.03;;;-136.87
14666;BMP280;7420;53.574;10.040;2023-11-18T01:25:06;54217.03;;;-136.87
14666;BMP280;7420;53.574;10.040;2023-11-18T01:27:33;54219.06;;;-136.87
14666;BMP280;7420;53.574;10.040;2023-11-18T01:29:59;54219.06;;;-136.87
14666;BMP280;7420;53.574;10.040;2023-11-18T01:32:25;54219.06;;;-136.87
14666;BMP280;7420;53.574;10.040;2023-11-18T01:34:51;54219.06;;;-136.87
14666;BMP280;7420;53.574;10.040;2023-11-18T01:37:16;54221.13;;;-136.87
14666;BMP280;7420;53.574;10.040;2023-11-18T01:39:42;54217.03;;;-136.87
14666;BMP280;7420;53.574;10.040;2023-11-18T01:42:07;54221.13;;;-136.87
14666;BMP280;7420;53.574;10.040;2023-11-18T01:44:33;54221.13;;;-136.87
14666;BMP280;7420;53.574;10.040;2023-11-18T01:47:01;54217.03;;;-136.87
14666;BMP280;7420;53.574;10.040;2023-11-18T01:49:31;54217.03;;;-136.87
14666;BMP280;7420;53.574;10.040;2023-11-18T01:51:57;54221.13;;;-136.87
14666;BMP280;7420;53.574;10.040;2023-11-18T01:54:24;54219.06;;;-136.87
14666;BMP280;7420;53.574;10.040;2023-11-18T01:56:50;54217.03;;;-136.87
14666;BMP280;7420;53.574;10.040;2023-11-18T01:59:17;54221.13;;;-136.87
14666;BMP280;7420;53.574;10.040;2023-11-18T02:01:50;54225.19;;;-136.87
14666;BMP280;7420;53.574;10.040;2023-11-18T02:04:16;54221.13;;;-136.87
14666;BMP280;7420;53.574;10.040;2023-11-18T02:06:45;54223.16;;;-136.87
14666;BMP280;7420;53.574;10.040;2023-11-18T02:09:16;54223.16;;;-136.87
14666;BMP280;7420;53.574;10.040;2023-11-18T02:12:27;54223.16;;;-136.87
14666;BMP280;7420;53.574;10.040;2023-11-18T02:14:55;54223.16;;;-136.87
14666;BMP280;7420;53.574;10.040;2023-11-18T02:17:25;54221.13;;;-136.87
14666;BMP280;7420;53.574;10.040;2023-11-18T02:19:53;54221.13;;;-136.87
14666;BMP280;7420;53.574;10.040;2023-11-18T02:22:20;54225.19;;;-136.87
14666;BMP280;7420;53.574;10.040;2023-11-18T02:24:47;54223.16;;;-136.87
14666;BMP280;7420;53.574;10.040;2023-11-18T02:27:12;54223.16;;;-136.87
14666;BMP280;7420;53.574;10.040;2023-11-18T02:29:40;54221.13;;;-136.87
14666;BMP280;7420;53.574;10.040;2023-11-18T02:32:36;54221.13;;;-136.87
14666;BMP280;7420;53.574;10.040;2023-11-18T02:35:13;54225.19;;;-136.87
14666;BMP280;7420;53.574;10.040;2023-11-18T02:37:44;54227.25;;;-136.87
14666;BMP280;7420;53.574;10.040;2023-11-18T02:40:12;54225.19;;;-136.87
14666;BMP280;7420;53.574;10.040;2023-11-18T02:42:43;54221.13;;;-136.87
14666;BMP280;7420;53.574;10.040;2023-11-18T02:45:11;54223.16;;;-136.87
14666;BMP280;7420;53.574;10.040;2023-11-18T02:47:44;54225.19;;;-136.87
14666;BMP280;7420;53.574;10.040;2023-11-18T02:50:09;54223.16;;;-136.87
14666;BMP280;7420;53.574;10.040;2023-11-18T02:52:39;54223.16;;;-136.87
14666;BMP280;7420;53.574;10.040;2023-11-18T02:55:08;54223.16;;;-136.87
14666;BMP280;7420;53.574;10.040;2023-11-18T02:57:37;54221.13;;;-136.87
14666;BMP280;7420;53.574;10.040;2023-11-18T03:00:06;54221.13;;;-136.87
14666;BMP280;7420;53.574;10.040;2023-11-18T03:02:42;54221.13;;;-136.87
14666;BMP280;7420;53.574;10.040;2023-11-18T03:05:08;54221.13;;;-136.87
14666;BMP280;7420;53.574;10.040;2023-11-18T03:07:40;54221.13;;;-136.87
14666;BMP280;7420;53.574;10.040;2023-11-18T03:10:06;54219.06;;;-136.87
14666;BMP280;7420;53.574;10.040;2023-11-18T03:12:38;54221.13;;;-136.87
14666;BMP280;7420;53.574;10.040;2023-11-18T03:15:05;54221.13;;;-136.87
14666;BMP280;7420;53.574;10.040;2023-11-18T03:17:31;54221.13;;;-136.87
14666;BMP280;7420;53.574;10.040;2023-11-18T03:19:56;54219.06;;;-136.87
14666;BMP280;7420;53.574;10.040;2023-11-18T03:22:22;54219.06;;;-136.87
14666;BMP280;7420;53.574;10.040;2023-11-18T03:24:48;54221.13;;;-136.87
14666;BMP280;7420;53.574;10.040;2023-11-18T03:27:14;54221.13;;;-136.87
14666;BMP280;7420;53.574;10.040;2023-11-18T03:29:40;54225.19;;;-136.87
14666;BMP280;7420;53.574;10.040;2023-11-18T03:32:06;54225.19;;;-136.87
14666;BMP280;7420;53.574;10.040;2023-11-18T03:34:31;54223.16;;;-136.87
14666;BMP280;7420;53.574;10.040;2023-11-18T03:36:57;54225.19;;;-136.87
14666;BMP280;7420;53.574;10.040;2023-11-18T03:39:22;54225.19;;;-136.87
14666;BMP280;7420;53.574;10.040;2023-11-18T03:41:48;54221.13;;;-136.87
14666;BMP280;7420;53.574;10.040;2023-11-18T03:44:15;54221.13;;;-136.87
14666;BMP280;7420;53.574;10.040;2023-11-18T03:46:40;54225.19;;;-136.87
14666;BMP280;7420;53.574;10.040;2023-11-18T03:49:06;54223.16;;;-136.87
14666;BMP280;7420;53.574;10.040;2023-11-18T03:51:31;54225.19;;;-136.87
14666;BMP280;7420;53.574;10.040;2023-11-18T03:53:57;54223.16;;;-136.87
14666;BMP280;7420;53.574;10.040;2023-11-18T03:56:22;54227.25;;;-136.87
14666;BMP280;7420;53.574;10.040;2023-11-18T03:58:48;54225.19;;;-136.87
14666;BMP280;7420;53.574;10.040;2023-11-18T04:01:24;54223.16;;;-136.87
14666;BMP280;7420;53.574;10.040;2023-11-18T04:03:52;54221.13;;;-136.87
14666;BMP280;7420;53.574;10.040;2023-11-18T04:06:17;54225.19;;;-136.87
14666;BMP280;7420;53.574;10.040;2023-11-18T04:08:46;54221.13;;;-136.87
14666;BMP280;7420;53.574;10.040;2023-11-18T04:11:13;54221.13;;;-136.87
14666;BMP280;7420;53.574;10.040;2023-11-18T04:13:42;54221.13;;;-136.87
14666;BMP280;7420;53.574;10.040;2023-11-18T04:16:15;54221.13;;;-136.87
14666;BMP280;7420;53.574;10.040;2023-11-18T04:18:41;54223.16;;;-136.87
14666;BMP280;7420;53.574;10.040;2023-11-18T04:21:07;54221.13;;;-136.87
14666;BMP280;7420;53.574;10.040;2023-11-18T04:23:36;54225.19;;;-136.87
14666;BMP280;7420;53.574;10.040;2023-11-18T04:26:03;54223.16;;;-136.87
14666;BMP280;7420;53.574;10.040;2023-11-18T04:28:28;54223.16;;;-136.87
14666;BMP280;7420;53.574;10.040;2023-11-18T04:30:54;54221.13;;;-136.87
14666;BMP280;7420;53.574;10.040;2023-11-18T04:33:20;54219.06;;;-136.87
14666;BMP280;7420;53.574;10.040;2023-11-18T04:35:48;54221.13;;;-136.87
14666;BMP280;7420;53.574;10.040;2023-11-18T04:38:13;54219.06;;;-136.87
14666;BMP280;7420;53.574;10.040;2023-11-18T04:40:38;54221.13;;;-136.87
14666;BMP280;7420;53.574;10.040;2023-11-18T04:43:06;54221.13;;;-136.87
14666;BMP280;7420;53.574;10.040;2023-11-18T04:45:32;54223.16;;;-136.87
14666;BMP280;7420;53.574;10.040;2023-11-18T04:47:57;54225.19;;;-136.87
14666;BMP280;7420;53.574;10.040;2023-11-18T04:50:24;54221.13;;;-136.87
14666;BMP280;7420;53.574;10.040;2023-11-18T04:52:49;54225.19;;;-136.87
14666;BMP280;7420;53.574;10.040;2023-11-18T04:55:15;54225.19;;;-136.87
14666;BMP280;7420;53.574;10.040;2023-11-18T04:57:40;54225.19;;;-136.87
14666;BMP280;7420;53.574;10.040;2023-11-18T05:00:06;54223.16;;;-136.87
14666;BMP280;7420;53.574;10.040;2023-11-18T05:02:38;54225.19;;;-136.87
14666;BMP280;7420;53.574;10.040;2023-11-18T05:05:04;54221.13;;;-136.87
14666;BMP280;7420;53.574;10.040;2023-11-18T05:07:31;54221.13;;;-136.87
14666;BMP280;7420;53.574;10.040;2023-11-18T05:09:57;54221.13;;;-136.87
14666;BMP280;7420;53.574;10.040;2023-11-18T05:12:22;54221.13;;;-136.87
14666;BMP280;7420;53.574;10.040;2023-11-18T05:14:47;54225.19;;;-136.87
14666;BMP280;7420;53.574;10.040;2023-11-18T05:17:15;54223.16;;;-136.87
14666;BMP280;7420;53.574;10.040;2023-11-18T05:19:41;54225.19;;;-136.87
14666;BMP280;7420;53.574;10.040;2023-11-18T05:22:07;54223.16;;;-136.87
14666;BMP280;7420;53.574;10.040;2023-11-18T05:24:32;54225.19;;;-136.87
14666;BMP280;7420;53.574;10.040;2023-11-18T05:26:58;54225.19;;;-136.87
14666;BMP280;7420;53.574;10.040;2023-11-18T05:29:27;54225.19;;;-136.87
14666;BMP280;7420;53.574;10.040;2023-11-18T05:31:53;54221.13;;;-136.87
14666;BMP280;7420;53.574;10.040;2023-11-18T05:34:20;54219.06;;;-136.87
14666;BMP280;7420;53.574;10.040;2023-11-18T05:36:46;54225.19;;;-136.87
14666;BMP280;7420;53.574;10.040;2023-11-18T05:39:12;54223.16;;;-136.87
14666;BMP280;7420;53.574;10.040;2023-11-18T05:41:40;54221.13;;;-136.87
14666;BMP280;7420;53.574;10.040;2023-11-18T05:44:06;54225.19;;;-136.87
14666;BMP280;7420;53.574;10.040;2023-11-18T05:46:34;54225.19;;;-136.87
14666;BMP280;7420;53.574;10.040;2023-11-18T05:49:03;54223.16;;;-136.87
14666;BMP280;7420;53.574;10.040;2023-11-18T05:51:33;54225.19;;;-136.87
14666;BMP280;7420;53.574;10.040;2023-11-18T05:53:58;54227.25;;;-136.87
14666;BMP280;7420;53.574;10.040;2023-11-18T05:56:24;54225.19;;;-136.87
14666;BMP280;7420;53.574;10.040;2023-11-18T05:58:51;54225.19;;;-136.87
14666;BMP280;7420;53.574;10.040;2023-11-18T06:01:18;54227.25;;;-136.87
14666;BMP280;7420;53.574;10.040;2023-11-18T06:03:45;54225.19;;;-136.87
14666;BMP280;7420;53.574;10.040;2023-11-18T06:06:12;54225.19;;;-136.87
14666;BMP280;7420;53.574;10.040;2023-11-18T06:08:38;54225.19;;;-136.87
14666;BMP280;7420;53.574;10.040;2023-11-18T06:11:09;54223.16;;;-136.87
14666;BMP280;7420;53.574;10.040;2023-11-18T06:13:45;54225.19;;;-136.87
14666;BMP280;7420;53.574;10.040;2023-11-18T06:16:15;54225.19;;;-136.87
14666;BMP280;7420;53.574;10.040;2023-11-18T06:18:42;54225.19;;;-136.87
14666;BMP280;7420;53.574;10.040;2023-11-18T06:21:17;54227.25;;;-136.87
14666;BMP280;7420;53.574;10.040;2023-11-18T06:23:44;54225.19;;;-136.87
14666;BMP280;7420;53.574;10.040;2023-11-18T06:26:11;54229.28;;;-136.87
14666;BMP280;7420;53.574;10.040;2023-11-18T06:28:38;54225.19;;;-136.87
14666;BMP280;7420;53.574;10.040;2023-11-18T06:31:04;54225.19;;;-136.87
14666;BMP280;7420;53.574;10.040;2023-11-18T06:33:36;54227.25;;;-136.87
14666;BMP280;7420;53.574;10.040;2023-11-18T06:36:01;54225.19;;;-136.87
14666;BMP280;7420;53.574;10.040;2023-11-18T06:38:27;54225.19;;;-136.87
14666;BMP280;7420;53.574;10.040;2023-11-18T06:40:52;54225.19;;;-136.87
14666;BMP280;7420;53.574;10.040;2023-11-18T06:43:19;54221.13;;;-136.87
14666;BMP280;7420;53.574;10.040;2023-11-18T06:45:44;54227.25;;;-136.87
14666;BMP280;7420;53.574;10.040;2023-11-18T06:48:10;54225.19;;;-136.87
14666;BMP280;7420;53.574;10.040;2023-11-18T06:50:36;54225.19;;;-136.87
14666;BMP280;7420;53.574;10.040;2023-11-18T06:53:01;54225.19;;;-136.87
14666;BMP280;7420;53.574;10.040;2023-11-18T06:55:26;54225.19;;;-136.87
14666;BMP280;7420;53.574;10.040;2023-11-18T06:57:52;54225.19;;;-136.87
14666;BMP280;7420;53.574;10.040;2023-11-18T07:00:21;54225.19;;;-136.87
14666;BMP280;7420;53.574;10.040;2023-11-18T07:02:47;54223.16;;;-136.87
14666;BMP280;7420;53.574;10.040;2023-11-18T07:05:12;54223.16;;;-136.87
14666;BMP280;7420;53.574;10.040;2023-11-18T07:07:40;54225.19;;;-136.87
14666;BMP280;7420;53.574;10.040;2023-11-18T07:10:06;54223.16;;;-136.87
14666;BMP280;7420;53.574;10.040;2023-11-18T07:12:32;54221.13;;;-136.87
14666;BMP280;7420;53.574;10.040;2023-11-18T07:14:59;54214.97;;;-136.87
14666;BMP280;7420;53.574;10.040;2023-11-18T07:17:26;54212.94;;;-136.87
14666;BMP280;7420;53.574;10.040;2023-11-18T07:19:51;54206.81;;;-136.87
14666;BMP280;7420;53.574;10.040;2023-11-18T07:24:42;54165.97;;;-136.87
14666;BMP280;7420;53.574;10.040;2023-11-18T07:27:08;54127.16;;;-136.87
14666;BMP280;7420;53.574;10.040;2023-11-18T07:29:36;54078.13;;;-136.87
14666;BMP280;7420;53.574;10.040;2023-11-18T07:32:02;54018.91;;;-136.87
14666;BMP280;7420;53.574;10.040;2023-11-18T07:34:31;53990.31;;;-136.87
14666;BMP280;7420;53.574;10.040;2023-11-18T07:36:58;53992.34;;;-136.87
14666;BMP280;7420;53.574;10.040;2023-11-18T07:39:23;53949.47;;;-136.87
14666;BMP280;7420;53.574;10.040;2023-11-18T07:41:55;53992.34;;;-136.87
14666;BMP280;7420;53.574;10.040;2023-11-18T07:44:24;53792.22;;;-136.87
14666;BMP280;7420;53.574;10.040;2023-11-18T07:46:50;53777.91;;;-136.87
14666;BMP280;7420;53.574;10.040;2023-11-18T07:49:15;53728.91;;;-136.87
14666;BMP280;7420;53.574;10.040;2023-11-18T07:51:41;53806.50;;;-136.87
14666;BMP280;7420;53.574;10.040;2023-11-18T07:54:07;53933.13;;;-136.87
14666;BMP280;7420;53.574;10.040;2023-11-18T07:56:32;53861.66;;;-136.87
14666;BMP280;7420;53.574;10.040;2023-11-18T07:58:58;53698.28;;;-136.87
14666;BMP280;7420;53.574;10.040;2023-11-18T08:01:23;53451.19;;;-136.87
14666;BMP280;7420;53.574;10.040;2023-11-18T08:03:49;52632.47;;;-136.87
14666;BMP280;7420;53.574;10.040;2023-11-18T08:06:16;51663.00;;;-136.87
14666;BMP280;7420;53.574;10.040;2023-11-18T08:08:42;49282.56;;;-136.87
14666;BMP280;7420;53.574;10.040;2023-11-18T08:11:10;50469.47;;;-136.87
14666;BMP280;7420;53.574;10.040;2023-11-18T08:13:36;50471.50;;;-136.87
14666;BMP280;7420;53.574;10.040;2023-11-18T08:16:02;49625.13;;;-136.87
14666;BMP280;7420;53.574;10.040;2023-11-18T08:18:27;49523.16;;;-136.87
14666;BMP280;7420;53.574;10.040;2023-11-18T08:20:56;50591.84;;;-136.87
14666;BMP280;7420;53.574;10.040;2023-11-18T08:23:22;51387.53;;;-136.87
14666;BMP280;7420;53.574;10.040;2023-11-18T08:25:48;51146.75;;;-136.87
14666;BMP280;7420;53.574;10.040;2023-11-18T08:28:15;50028.91;;;-136.87
14666;BMP280;7420;53.574;10.040;2023-11-18T08:30:41;50469.47;;;-136.87
14666;BMP280;7420;53.574;10.040;2023-11-18T08:33:06;51669.13;;;-136.87
14666;BMP280;7420;53.574;10.040;2023-11-18T08:35:35;52005.84;;;-136.87
14666;BMP280;7420;53.574;10.040;2023-11-18T08:38:00;52073.19;;;-136.87
14666;BMP280;7420;53.574;10.040;2023-11-18T08:40:26;52060.94;;;-136.87
14666;BMP280;7420;53.574;10.040;2023-11-18T08:42:52;51442.63;;;-136.87
14666;BMP280;7420;53.574;10.040;2023-11-18T08:45:22;50791.78;;;-136.87
14666;BMP280;7420;53.574;10.040;2023-11-18T08:47:52;49747.47;;;-136.87
14666;BMP280;7420;53.574;10.040;2023-11-18T08:50:18;33823.41;;;-136.87
14666;BMP280;7420;53.574;10.040;2023-11-18T08:52:44;25459.81;;;-136.87
14666;BMP280;7420;53.574;10.040;2023-11-18T08:55:13;26074.44;;;-136.87
14666;BMP280;7420;53.574;10.040;2023-11-18T08:57:51;33797.06;;;-136.87
14666;BMP280;7420;53.574;10.040;2023-11-18T09:00:30;26436.38;;;-136.87
14666;BMP280;7420;53.574;10.040;2023-11-18T09:03:16;23709.72;;;-136.87
14666;BMP280;7420;53.574;10.040;2023-11-18T09:06:02;24600.81;;;-136.87
14666;BMP280;7420;53.574;10.040;2023-11-18T09:11:05;25403.22;;;-136.87
14666;BMP280;7420;53.574;10.040;2023-11-18T09:13:31;26824.69;;;-136.87
14666;BMP280;7420;53.574;10.040;2023-11-18T09:16:01;30238.81;;;-136.87
14666;BMP280;7420;53.574;10.040;2023-11-18T09:18:28;36564.13;;;-136.87
14666;BMP280;7420;53.574;10.040;2023-11-18T09:20:55;38159.91;;;-136.87
14666;BMP280;7420;53.574;10.040;2023-11-18T09:23:22;33180.72;;;-136.87
14666;BMP280;7420;53.574;10.040;2023-11-18T09:25:51;36381.47;;;-136.87
14666;BMP280;7420;53.574;10.040;2023-11-18T09:28:22;35074.75;;;-136.87
14666;BMP280;7420;53.574;10.040;2023-11-18T09:30:50;34379.03;;;-136.87
14666;BMP280;7420;53.574;10.040;2023-11-18T09:33:19;38854.53;;;-136.87
14666;BMP280;7420;53.574;10.040;2023-11-18T09:35:55;38013.69;;;-136.87
14666;BMP280;7420;53.574;10.040;2023-11-18T09:38:25;30202.34;;;-136.87
14666;BMP280;7420;53.574;10.040;2023-11-18T09:40:52;27805.78;;;-136.87
14666;BMP280;7420;53.574;10.040;2023-11-18T09:43:18;26511.22;;;-136.87
14666;BMP280;7420;53.574;10.040;2023-11-18T09:45:44;25336.50;;;-136.87
14666;BMP280;7420;53.574;10.040;2023-11-18T09:48:15;24265.34;;;-136.87
14666;BMP280;7420;53.574;10.040;2023-11-18T09:50:44;24245.16;;;-136.87
14666;BMP280;7420;53.574;10.040;2023-11-18T09:53:13;23863.28;;;-136.87
14666;BMP280;7420;53.574;10.040;2023-11-18T09:56:04;23491.56;;;-136.87
14666;BMP280;7420;53.574;10.040;2023-11-18T09:58:40;23293.59;;;-136.87
14666;BMP280;7420;53.574;10.040;2023-11-18T10:01:15;22538.25;;;-136.87
14666;BMP280;7420;53.574;10.040;2023-11-18T10:03:44;22241.41;;;-136.87
14666;BMP280;7420;53.574;10.040;2023-11-18T10:06:12;22029.41;;;-136.87
14666;BMP280;7420;53.574;10.040;2023-11-18T10:08:40;21922.41;;;-136.87
14666;BMP280;7420;53.574;10.040;2023-11-18T10:11:05;21682.16;;;-136.87
14666;BMP280;7420;53.574;10.040;2023-11-18T10:13:34;21427.81;;;-136.87
14666;BMP280;7420;53.574;10.040;2023-11-18T10:16:06;21443.94;;;-136.87
14666;BMP280;7420;53.574;10.040;2023-11-18T10:18:32;21734.66;;;-136.87
14666;BMP280;7420;53.574;10.040;2023-11-18T10:21:02;21938.53;;;-136.87
14666;BMP280;7420;53.574;10.040;2023-11-18T10:23:29;21714.47;;;-136.87
14666;BMP280;7420;53.574;10.040;2023-11-18T10:25:59;21322.84;;;-136.87
14666;BMP280;7420;53.574;10.040;2023-11-18T10:28:33;21201.72;;;-136.87
14666;BMP280;7420;53.574;10.040;2023-11-18T10:31:07;21096.78;;;-136.87
14666;BMP280;7420;53.574;10.040;2023-11-18T10:33:36;20626.53;;;-136.87
14666;BMP280;7420;53.574;10.040;2023-11-18T10:36:03;20315.78;;;-136.87
14666;BMP280;7420;53.574;10.040;2023-11-18T10:38:30;19938.50;;;-136.87
14666;BMP280;7420;53.574;10.040;2023-11-18T10:40:58;19418.03;;;-136.87
14666;BMP280;7420;53.574;10.040;2023-11-18T10:43:26;19301.06;;;-136.87
14666;BMP280;7420;53.574;10.040;2023-11-18T10:46:14;18915.84;;;-136.87
14666;BMP280;7420;53.574;10.040;2023-11-18T10:48:47;18671.81;;;-136.87
14666;BMP280;7420;53.574;10.040;2023-11-18T10:51:14;18226.19;;;-136.87
14666;BMP280;7420;53.574;10.040;2023-11-18T10:53:42;17655.69;;;-136.87
14666;BMP280;7420;53.574;10.040;2023-11-18T10:56:21;17442.00;;;-136.87
14666;BMP280;7420;53.574;10.040;2023-11-18T10:58:51;17036.91;;;-136.87
14666;BMP280;7420;53.574;10.040;2023-11-18T11:01:27;16780.97;;;-136.87
14666;BMP280;7420;53.574;10.040;2023-11-18T11:03:53;16700.34;;;-136.87
14666;BMP280;7420;53.574;10.040;2023-11-18T11:06:26;16732.59;;;-136.87
14666;BMP280;7420;53.574;10.040;2023-11-18T11:08:56;16216.78;;;-136.87
14666;BMP280;7420;53.574;10.040;2023-11-18T11:11:24;16128.13;;;-136.87
14666;BMP280;7420;53.574;10.040;2023-11-18T11:13:57;15870.25;;;-136.87
14666;BMP280;7420;53.574;10.040;2023-11-18T11:16:35;16097.91;;;-136.87
14666;BMP280;7420;53.574;10.040;2023-11-18T11:19:04;16075.75;;;-136.87
14666;BMP280;7420;53.574;10.040;2023-11-18T11:21:39;15725.22;;;-136.87
14666;BMP280;7420;53.574;10.040;2023-11-18T11:24:11;15741.34;;;-136.87
14666;BMP280;7420;53.574;10.040;2023-11-18T11:27:17;15074.66;;;-136.87
14666;BMP280;7420;53.574;10.040;2023-11-18T11:30:02;15380.78;;;-136.87
14666;BMP280;7420;53.574;10.040;2023-11-18T11:33:02;15330.44;;;-136.87
14666;BMP280;7420;53.574;10.040;2023-11-18T11:35:31;15469.41;;;-136.87
14666;BMP280;7420;53.574;10.040;2023-11-18T11:37:59;15253.91;;;-136.87
14666;BMP280;7420;53.574;10.040;2023-11-18T11:40:33;15016.25;;;-136.87
14666;BMP280;7420;53.574;10.040;2023-11-18T11:43:00;15793.72;;;-136.87
14666;BMP280;7420;53.574;10.040;2023-11-18T11:45:30;15999.19;;;-136.87
14666;BMP280;7420;53.574;10.040;2023-11-18T11:47:57;15362.66;;;-136.87
14666;BMP280;7420;53.574;10.040;2023-11-18T11:54:06;15842.06;;;-136.87
14666;BMP280;7420;53.574;10.040;2023-11-18T11:56:46;16986.50;;;-136.87
14666;BMP280;7420;53.574;10.040;2023-11-18T12:02:10;18925.91;;;-136.87
14666;BMP280;7420;53.574;10.040;2023-11-18T12:04:39;18929.94;;;-136.87
14666;BMP280;7420;53.574;10.040;2023-11-18T12:07:08;18655.69;;;-136.87
14666;BMP280;7420;53.574;10.040;2023-11-18T12:09:36;18581.09;;;-136.87
14666;BMP280;7420;53.574;10.040;2023-11-18T12:12:05;18454.03;;;-136.87
14666;BMP280;7420;53.574;10.040;2023-11-18T12:20:45;21486.34;;;-136.87
14666;BMP280;7420;53.574;10.040;2023-11-18T12:23:19;24558.38;;;-136.87
14666;BMP280;7420;53.574;10.040;2023-11-18T12:25:48;26745.81;;;-136.87
14666;BMP280;7420;53.574;10.040;2023-11-18T12:28:25;29173.84;;;-136.87
14666;BMP280;7420;53.574;10.040;2023-11-18T12:30:53;27350.59;;;-136.87
14666;BMP280;7420;53.574;10.040;2023-11-18T12:33:23;23285.50;;;-136.87
14666;BMP280;7420;53.574;10.040;2023-11-18T12:46:52;26076.44;;;-136.87
14666;BMP280;7420;53.574;10.040;2023-11-18T12:49:19;25765.09;;;-136.87
14666;BMP280;7420;53.574;10.040;2023-11-18T12:51:49;26745.81;;;-136.87
14666;BMP280;7420;53.574;10.040;2023-11-18T12:54:15;28449.25;;;-136.87
14666;BMP280;7420;53.574;10.040;2023-11-18T12:56:41;33061.13;;;-136.87
14666;BMP280;7420;53.574;10.040;2023-11-18T12:59:10;43361.63;;;-136.87
14666;BMP280;7420;53.574;10.040;2023-11-18T13:01:38;45052.91;;;-136.87
14666;BMP280;7420;53.574;10.040;2023-11-18T13:04:07;49282.56;;;-136.87
14666;BMP280;7420;53.574;10.040;2023-11-18T13:06:34;51014.13;;;-136.87
14666;BMP280;7420;53.574;10.040;2023-11-18T13:09:00;51705.84;;;-136.87
14666;BMP280;7420;53.574;10.040;2023-11-18T13:11:31;51669.13;;;-136.87
14666;BMP280;7420;53.574;10.040;2023-11-18T13:13:56;51795.63;;;-136.87
14666;BMP280;7420;53.574;10.040;2023-11-18T13:16:22;52334.44;;;-136.87
14666;BMP280;7420;53.574;10.040;2023-11-18T13:18:50;52344.66;;;-136.87
14666;BMP280;7420;53.574;10.040;2023-11-18T13:21:17;52438.56;;;-136.87
14666;BMP280;7420;53.574;10.040;2023-11-18T13:23:47;52644.72;;;-136.87
14666;BMP280;7420;53.574;10.040;2023-11-18T13:26:16;52632.47;;;-136.87
14666;BMP280;7420;53.574;10.040;2023-11-18T13:28:42;52673.31;;;-136.87
14666;BMP280;7420;53.574;10.040;2023-11-18T13:31:11;52824.38;;;-136.87
14666;BMP280;7420;53.574;10.040;2023-11-18T13:33:39;52840.72;;;-136.87
14666;BMP280;7420;53.574;10.040;2023-11-18T13:36:06;52803.97;;;-136.87
14666;BMP280;7420;53.574;10.040;2023-11-18T13:38:32;52746.78;;;-136.87
14666;BMP280;7420;53.574;10.040;2023-11-18T13:40:57;52769.25;;;-136.87
14666;BMP280;7420;53.574;10.040;2023-11-18T13:43:23;52875.41;;;-136.87
14666;BMP280;7420;53.574;10.040;2023-11-18T13:45:52;52950.94;;;-136.87
14666;BMP280;7420;53.574;10.040;2023-11-18T13:48:24;53089.78;;;-136.87
14666;BMP280;7420;53.574;10.040;2023-11-18T13:50:50;53175.53;;;-136.87
14666;BMP280;7420;53.574;10.040;2023-11-18T13:53:16;53281.72;;;-136.87
14666;BMP280;7420;53.574;10.040;2023-11-18T13:55:41;53347.03;;;-136.87
14666;BMP280;7420;53.574;10.040;2023-11-18T13:58:07;53404.22;;;-136.87
14666;BMP280;7420;53.574;10.040;2023-11-18T14:00:35;53412.38;;;-136.87
14666;BMP280;7420;53.574;10.040;2023-11-18T14:03:01;53432.81;;;-136.87
14666;BMP280;7420;53.574;10.040;2023-11-18T14:05:26;53447.09;;;-136.87
14666;BMP280;7420;53.574;10.040;2023-11-18T14:07:57;53514.50;;;-136.87
14666;BMP280;7420;53.574;10.040;2023-11-18T14:10:33;53543.06;;;-136.87
14666;BMP280;7420;53.574;10.040;2023-11-18T14:13:05;53573.72;;;-136.87
14666;BMP280;7420;53.574;10.040;2023-11-18T14:15:40;53592.09;;;-136.87
14666;BMP280;7420;53.574;10.040;2023-11-18T14:18:07;53610.47;;;-136.87
14666;BMP280;7420;53.574;10.040;2023-11-18T14:20:34;53624.75;;;-136.87